sensor_id;sensor_type;location;lat;lon;timestamp;P1;durP1;ratioP1;P2;durP2;ratioP2
17488;SDS011;8861;52.644;4.734;2022-10-23T00:01:27;12.27;;;8.77;;
17488;SDS011;8861;52.644;4.734;2022-10-23T00:03:57;11.90;;;8.37;;
17488;SDS011;8861;52.644;4.734;2022-10-23T00:06:25;10.57;;;8.57;;
17488;SDS011;8861;52.644;4.734;2022-10-23T00:08:53;11.60;;;8.20;;
17488;SDS011;8861;52.644;4.734;2022-10-23T00:11:21;11.90;;;8.50;;
17488;SDS011;8861;52.644;4.734;2022-10-23T00:13:50;10.57;;;7.57;;
17488;SDS011;8861;52.644;4.734;2022-10-23T00:16:20;12.27;;;8.87;;
17488;SDS011;8861;52.644;4.734;2022-10-23T00:18:48;12.50;;;8.50;;
17488;SDS011;8861;52.644;4.734;2022-10-23T00:21:16;12.57;;;8.70;;
17488;SDS011;8861;52.644;4.734;2022-10-23T00:23:43;12.67;;;9.17;;
17488;SDS011;8861;52.644;4.734;2022-10-23T00:26:11;12.43;;;9.10;;
17488;SDS011;8861;52.644;4.734;2022-10-23T00:28:39;13.97;;;9.40;;
17488;SDS011;8861;52.644;4.734;2022-10-23T00:31:07;12.80;;;9.07;;
17488;SDS011;8861;52.644;4.734;2022-10-23T00:33:34;12.23;;;9.17;;
17488;SDS011;8861;52.644;4.734;2022-10-23T00:36:04;12.60;;;9.03;;
17488;SDS011;8861;52.644;4.734;2022-10-23T00:38:31;11.77;;;8.70;;
17488;SDS011;8861;52.644;4.734;2022-10-23T00:40:59;13.57;;;8.83;;
17488;SDS011;8861;52.644;4.734;2022-10-23T00:43:27;11.93;;;8.47;;
17488;SDS011;8861;52.644;4.734;2022-10-23T00:45:55;14.13;;;9.10;;
17488;SDS011;8861;52.644;4.734;2022-10-23T00:48:23;10.77;;;8.10;;
17488;SDS011;8861;52.644;4.734;2022-10-23T00:50:52;11.47;;;8.30;;
17488;SDS011;8861;52.644;4.734;2022-10-23T00:53:21;10.57;;;7.93;;
17488;SDS011;8861;52.644;4.734;2022-10-23T00:55:49;12.10;;;8.77;;
17488;SDS011;8861;52.644;4.734;2022-10-23T00:58:20;11.00;;;8.10;;
17488;SDS011;8861;52.644;4.734;2022-10-23T01:00:47;13.57;;;8.90;;
17488;SDS011;8861;52.644;4.734;2022-10-23T01:03:16;11.13;;;8.77;;
17488;SDS011;8861;52.644;4.734;2022-10-23T01:05:47;11.60;;;8.60;;
17488;SDS011;8861;52.644;4.734;2022-10-23T01:08:20;14.33;;;9.37;;
17488;SDS011;8861;52.644;4.734;2022-10-23T01:10:56;12.63;;;8.83;;
17488;SDS011;8861;52.644;4.734;2022-10-23T01:13:31;12.27;;;9.23;;
17488;SDS011;8861;52.644;4.734;2022-10-23T01:16:04;14.80;;;10.60;;
17488;SDS011;8861;52.644;4.734;2022-10-23T01:18:37;12.13;;;9.90;;
17488;SDS011;8861;52.644;4.734;2022-10-23T01:21:08;14.63;;;10.20;;
17488;SDS011;8861;52.644;4.734;2022-10-23T01:23:49;12.37;;;10.17;;
17488;SDS011;8861;52.644;4.734;2022-10-23T01:26:41;14.50;;;10.40;;
17488;SDS011;8861;52.644;4.734;2022-10-23T01:29:28;16.33;;;12.20;;
17488;SDS011;8861;52.644;4.734;2022-10-23T01:32:03;17.77;;;11.93;;
17488;SDS011;8861;52.644;4.734;2022-10-23T01:34:36;16.13;;;11.40;;
17488;SDS011;8861;52.644;4.734;2022-10-23T01:37:11;14.37;;;11.43;;
17488;SDS011;8861;52.644;4.734;2022-10-23T01:39:45;14.97;;;11.43;;
17488;SDS011;8861;52.644;4.734;2022-10-23T01:42:15;13.13;;;10.53;;
17488;SDS011;8861;52.644;4.734;2022-10-23T01:44:47;12.27;;;10.27;;
17488;SDS011;8861;52.644;4.734;2022-10-23T01:47:17;15.23;;;10.40;;
17488;SDS011;8861;52.644;4.734;2022-10-23T01:49:48;13.63;;;10.67;;
17488;SDS011;8861;52.644;4.734;2022-10-23T01:52:17;14.77;;;11.03;;
17488;SDS011;8861;52.644;4.734;2022-10-23T01:54:46;13.60;;;10.00;;
17488;SDS011;8861;52.644;4.734;2022-10-23T01:57:16;14.10;;;9.90;;
17488;SDS011;8861;52.644;4.734;2022-10-23T01:59:47;14.93;;;9.73;;
17488;SDS011;8861;52.644;4.734;2022-10-23T02:02:18;14.10;;;10.23;;
17488;SDS011;8861;52.644;4.734;2022-10-23T02:04:49;12.73;;;10.03;;
17488;SDS011;8861;52.644;4.734;2022-10-23T02:07:22;13.07;;;10.07;;
17488;SDS011;8861;52.644;4.734;2022-10-23T02:09:49;11.77;;;9.83;;
17488;SDS011;8861;52.644;4.734;2022-10-23T02:12:17;15.83;;;11.07;;
17488;SDS011;8861;52.644;4.734;2022-10-23T02:14:53;14.03;;;10.20;;
17488;SDS011;8861;52.644;4.734;2022-10-23T02:17:25;13.10;;;9.60;;
17488;SDS011;8861;52.644;4.734;2022-10-23T02:19:57;13.67;;;10.03;;
17488;SDS011;8861;52.644;4.734;2022-10-23T02:22:29;12.70;;;9.70;;
17488;SDS011;8861;52.644;4.734;2022-10-23T02:25:02;11.03;;;9.80;;
17488;SDS011;8861;52.644;4.734;2022-10-23T02:27:37;14.33;;;10.40;;
17488;SDS011;8861;52.644;4.734;2022-10-23T02:30:10;11.80;;;9.80;;
17488;SDS011;8861;52.644;4.734;2022-10-23T02:32:40;14.27;;;10.17;;
17488;SDS011;8861;52.644;4.734;2022-10-23T02:35:11;14.73;;;10.23;;
17488;SDS011;8861;52.644;4.734;2022-10-23T02:37:39;13.77;;;10.50;;
17488;SDS011;8861;52.644;4.734;2022-10-23T02:40:06;15.23;;;10.53;;
17488;SDS011;8861;52.644;4.734;2022-10-23T02:42:35;14.43;;;10.90;;
17488;SDS011;8861;52.644;4.734;2022-10-23T02:45:07;13.40;;;10.27;;
17488;SDS011;8861;52.644;4.734;2022-10-23T02:47:43;13.50;;;11.10;;
17488;SDS011;8861;52.644;4.734;2022-10-23T02:50:19;14.10;;;10.37;;
17488;SDS011;8861;52.644;4.734;2022-10-23T02:52:53;11.70;;;9.57;;
17488;SDS011;8861;52.644;4.734;2022-10-23T02:55:30;12.27;;;10.23;;
17488;SDS011;8861;52.644;4.734;2022-10-23T02:58:05;12.53;;;9.87;;
17488;SDS011;8861;52.644;4.734;2022-10-23T03:00:37;16.13;;;11.40;;
17488;SDS011;8861;52.644;4.734;2022-10-23T03:03:08;14.47;;;11.00;;
17488;SDS011;8861;52.644;4.734;2022-10-23T03:05:39;16.00;;;11.20;;
17488;SDS011;8861;52.644;4.734;2022-10-23T03:08:09;14.47;;;11.47;;
17488;SDS011;8861;52.644;4.734;2022-10-23T03:10:37;14.63;;;11.33;;
17488;SDS011;8861;52.644;4.734;2022-10-23T03:13:04;14.73;;;11.37;;
17488;SDS011;8861;52.644;4.734;2022-10-23T03:15:31;13.63;;;11.60;;
17488;SDS011;8861;52.644;4.734;2022-10-23T03:18:00;15.80;;;11.57;;
17488;SDS011;8861;52.644;4.734;2022-10-23T03:20:27;15.97;;;12.63;;
17488;SDS011;8861;52.644;4.734;2022-10-23T03:22:53;19.87;;;13.53;;
17488;SDS011;8861;52.644;4.734;2022-10-23T03:25:20;18.10;;;12.60;;
17488;SDS011;8861;52.644;4.734;2022-10-23T03:27:47;18.90;;;13.17;;
17488;SDS011;8861;52.644;4.734;2022-10-23T03:30:14;18.53;;;13.43;;
17488;SDS011;8861;52.644;4.734;2022-10-23T03:32:41;18.43;;;13.73;;
17488;SDS011;8861;52.644;4.734;2022-10-23T03:35:09;18.83;;;13.23;;
17488;SDS011;8861;52.644;4.734;2022-10-23T03:37:36;17.90;;;13.80;;
17488;SDS011;8861;52.644;4.734;2022-10-23T03:40:04;18.90;;;13.37;;
17488;SDS011;8861;52.644;4.734;2022-10-23T03:42:31;18.33;;;13.33;;
17488;SDS011;8861;52.644;4.734;2022-10-23T03:44:58;19.80;;;14.50;;
17488;SDS011;8861;52.644;4.734;2022-10-23T03:47:25;19.43;;;14.57;;
17488;SDS011;8861;52.644;4.734;2022-10-23T03:49:54;17.77;;;13.83;;
17488;SDS011;8861;52.644;4.734;2022-10-23T03:52:22;17.97;;;13.50;;
17488;SDS011;8861;52.644;4.734;2022-10-23T03:54:49;15.83;;;12.23;;
17488;SDS011;8861;52.644;4.734;2022-10-23T03:57:16;15.67;;;12.57;;
17488;SDS011;8861;52.644;4.734;2022-10-23T03:59:43;20.93;;;12.80;;
17488;SDS011;8861;52.644;4.734;2022-10-23T04:02:10;18.13;;;12.57;;
17488;SDS011;8861;52.644;4.734;2022-10-23T04:04:36;17.87;;;13.73;;
17488;SDS011;8861;52.644;4.734;2022-10-23T04:07:03;20.80;;;15.10;;
17488;SDS011;8861;52.644;4.734;2022-10-23T04:09:32;20.73;;;14.40;;
17488;SDS011;8861;52.644;4.734;2022-10-23T04:11:59;19.83;;;14.13;;
17488;SDS011;8861;52.644;4.734;2022-10-23T04:14:26;18.53;;;14.30;;
17488;SDS011;8861;52.644;4.734;2022-10-23T04:16:53;18.17;;;14.17;;
17488;SDS011;8861;52.644;4.734;2022-10-23T04:19:20;17.13;;;13.00;;
17488;SDS011;8861;52.644;4.734;2022-10-23T04:21:47;19.37;;;13.20;;
17488;SDS011;8861;52.644;4.734;2022-10-23T04:24:13;16.50;;;12.70;;
17488;SDS011;8861;52.644;4.734;2022-10-23T04:26:42;19.13;;;13.90;;
17488;SDS011;8861;52.644;4.734;2022-10-23T04:29:09;16.63;;;12.83;;
17488;SDS011;8861;52.644;4.734;2022-10-23T04:31:36;16.87;;;13.23;;
17488;SDS011;8861;52.644;4.734;2022-10-23T04:34:03;18.50;;;13.80;;
17488;SDS011;8861;52.644;4.734;2022-10-23T04:36:30;18.10;;;13.73;;
17488;SDS011;8861;52.644;4.734;2022-10-23T04:38:57;17.13;;;13.60;;
17488;SDS011;8861;52.644;4.734;2022-10-23T04:41:24;16.20;;;12.93;;
17488;SDS011;8861;52.644;4.734;2022-10-23T04:43:52;15.60;;;12.27;;
17488;SDS011;8861;52.644;4.734;2022-10-23T04:46:19;18.77;;;13.47;;
17488;SDS011;8861;52.644;4.734;2022-10-23T04:48:46;17.80;;;13.43;;
17488;SDS011;8861;52.644;4.734;2022-10-23T04:51:13;18.00;;;13.30;;
17488;SDS011;8861;52.644;4.734;2022-10-23T04:53:40;16.03;;;13.00;;
17488;SDS011;8861;52.644;4.734;2022-10-23T04:56:07;17.07;;;13.30;;
17488;SDS011;8861;52.644;4.734;2022-10-23T04:58:37;18.30;;;13.10;;
17488;SDS011;8861;52.644;4.734;2022-10-23T05:01:06;16.40;;;11.90;;
17488;SDS011;8861;52.644;4.734;2022-10-23T05:03:34;14.13;;;12.13;;
17488;SDS011;8861;52.644;4.734;2022-10-23T05:06:01;15.87;;;12.57;;
17488;SDS011;8861;52.644;4.734;2022-10-23T05:08:29;15.37;;;12.33;;
17488;SDS011;8861;52.644;4.734;2022-10-23T05:10:56;16.53;;;12.30;;
17488;SDS011;8861;52.644;4.734;2022-10-23T05:13:23;16.33;;;12.60;;
17488;SDS011;8861;52.644;4.734;2022-10-23T05:15:50;15.90;;;12.80;;
17488;SDS011;8861;52.644;4.734;2022-10-23T05:18:20;15.53;;;11.33;;
17488;SDS011;8861;52.644;4.734;2022-10-23T05:20:51;16.43;;;12.40;;
17488;SDS011;8861;52.644;4.734;2022-10-23T05:23:21;13.83;;;11.70;;
17488;SDS011;8861;52.644;4.734;2022-10-23T05:25:50;15.03;;;11.83;;
17488;SDS011;8861;52.644;4.734;2022-10-23T05:28:17;16.00;;;11.53;;
17488;SDS011;8861;52.644;4.734;2022-10-23T05:30:44;14.83;;;11.90;;
17488;SDS011;8861;52.644;4.734;2022-10-23T05:33:11;15.20;;;12.10;;
17488;SDS011;8861;52.644;4.734;2022-10-23T05:35:39;13.97;;;11.80;;
17488;SDS011;8861;52.644;4.734;2022-10-23T05:38:09;15.23;;;11.33;;
17488;SDS011;8861;52.644;4.734;2022-10-23T05:40:37;13.37;;;11.23;;
17488;SDS011;8861;52.644;4.734;2022-10-23T05:43:04;14.30;;;11.47;;
17488;SDS011;8861;52.644;4.734;2022-10-23T05:45:31;14.97;;;11.47;;
17488;SDS011;8861;52.644;4.734;2022-10-23T05:47:58;13.93;;;11.67;;
17488;SDS011;8861;52.644;4.734;2022-10-23T05:50:25;15.33;;;11.60;;
17488;SDS011;8861;52.644;4.734;2022-10-23T05:52:53;13.37;;;10.83;;
17488;SDS011;8861;52.644;4.734;2022-10-23T05:55:20;15.10;;;11.77;;
17488;SDS011;8861;52.644;4.734;2022-10-23T05:57:47;15.43;;;11.87;;
17488;SDS011;8861;52.644;4.734;2022-10-23T06:00:14;16.80;;;12.93;;
17488;SDS011;8861;52.644;4.734;2022-10-23T06:02:41;16.70;;;12.73;;
17488;SDS011;8861;52.644;4.734;2022-10-23T06:05:08;15.83;;;11.63;;
17488;SDS011;8861;52.644;4.734;2022-10-23T06:07:34;15.30;;;11.50;;
17488;SDS011;8861;52.644;4.734;2022-10-23T06:10:03;15.93;;;11.63;;
17488;SDS011;8861;52.644;4.734;2022-10-23T06:12:31;14.67;;;11.30;;
17488;SDS011;8861;52.644;4.734;2022-10-23T06:14:58;15.73;;;10.93;;
17488;SDS011;8861;52.644;4.734;2022-10-23T06:17:26;14.23;;;11.00;;
17488;SDS011;8861;52.644;4.734;2022-10-23T06:19:53;16.50;;;11.10;;
17488;SDS011;8861;52.644;4.734;2022-10-23T06:22:24;13.20;;;10.43;;
17488;SDS011;8861;52.644;4.734;2022-10-23T06:24:52;16.27;;;11.33;;
17488;SDS011;8861;52.644;4.734;2022-10-23T06:27:20;14.43;;;10.27;;
17488;SDS011;8861;52.644;4.734;2022-10-23T06:29:47;13.97;;;10.70;;
17488;SDS011;8861;52.644;4.734;2022-10-23T06:32:14;13.07;;;9.70;;
17488;SDS011;8861;52.644;4.734;2022-10-23T06:34:41;13.13;;;9.93;;
17488;SDS011;8861;52.644;4.734;2022-10-23T06:37:08;13.87;;;10.93;;
17488;SDS011;8861;52.644;4.734;2022-10-23T06:39:35;12.17;;;9.57;;
17488;SDS011;8861;52.644;4.734;2022-10-23T06:42:04;13.50;;;9.93;;
17488;SDS011;8861;52.644;4.734;2022-10-23T06:44:33;14.23;;;10.37;;
17488;SDS011;8861;52.644;4.734;2022-10-23T06:47:00;12.50;;;9.23;;
17488;SDS011;8861;52.644;4.734;2022-10-23T06:49:27;11.23;;;8.67;;
17488;SDS011;8861;52.644;4.734;2022-10-23T06:51:54;13.10;;;9.27;;
17488;SDS011;8861;52.644;4.734;2022-10-23T06:54:21;10.93;;;8.47;;
17488;SDS011;8861;52.644;4.734;2022-10-23T07:33:27;9.57;;;7.30;;
17488;SDS011;8861;52.644;4.734;2022-10-23T07:36:13;9.67;;;7.90;;
17488;SDS011;8861;52.644;4.734;2022-10-23T07:38:40;11.07;;;7.23;;
17488;SDS011;8861;52.644;4.734;2022-10-23T07:41:07;10.23;;;7.20;;
17488;SDS011;8861;52.644;4.734;2022-10-23T07:43:34;8.53;;;7.20;;
17488;SDS011;8861;52.644;4.734;2022-10-23T07:46:01;10.43;;;7.53;;
17488;SDS011;8861;52.644;4.734;2022-10-23T07:48:30;9.90;;;7.90;;
17488;SDS011;8861;52.644;4.734;2022-10-23T07:50:57;10.37;;;7.60;;
17488;SDS011;8861;52.644;4.734;2022-10-23T07:53:26;8.30;;;7.17;;
17488;SDS011;8861;52.644;4.734;2022-10-23T07:55:54;13.67;;;7.33;;
17488;SDS011;8861;52.644;4.734;2022-10-23T07:58:21;10.40;;;7.10;;
17488;SDS011;8861;52.644;4.734;2022-10-23T08:00:55;8.53;;;6.50;;
17488;SDS011;8861;52.644;4.734;2022-10-23T08:03:23;7.80;;;6.70;;
17488;SDS011;8861;52.644;4.734;2022-10-23T08:05:52;7.67;;;6.43;;
17488;SDS011;8861;52.644;4.734;2022-10-23T08:08:20;8.17;;;6.07;;
17488;SDS011;8861;52.644;4.734;2022-10-23T08:10:47;7.93;;;6.10;;
17488;SDS011;8861;52.644;4.734;2022-10-23T08:13:15;7.63;;;6.00;;
17488;SDS011;8861;52.644;4.734;2022-10-23T08:15:44;10.37;;;6.33;;
17488;SDS011;8861;52.644;4.734;2022-10-23T08:18:13;8.47;;;6.70;;
17488;SDS011;8861;52.644;4.734;2022-10-23T08:20:40;8.17;;;6.47;;
17488;SDS011;8861;52.644;4.734;2022-10-23T08:23:10;7.93;;;6.17;;
17488;SDS011;8861;52.644;4.734;2022-10-23T08:25:37;9.17;;;6.37;;
17488;SDS011;8861;52.644;4.734;2022-10-23T08:28:05;8.43;;;6.20;;
17488;SDS011;8861;52.644;4.734;2022-10-23T08:30:33;7.07;;;6.00;;
17488;SDS011;8861;52.644;4.734;2022-10-23T08:33:01;7.83;;;6.53;;
17488;SDS011;8861;52.644;4.734;2022-10-23T08:35:28;8.30;;;6.40;;
17488;SDS011;8861;52.644;4.734;2022-10-23T08:37:55;8.67;;;6.63;;
17488;SDS011;8861;52.644;4.734;2022-10-23T08:40:23;8.27;;;6.47;;
17488;SDS011;8861;52.644;4.734;2022-10-23T08:42:52;8.53;;;6.83;;
17488;SDS011;8861;52.644;4.734;2022-10-23T08:45:27;9.90;;;6.27;;
17488;SDS011;8861;52.644;4.734;2022-10-23T08:47:57;11.67;;;7.10;;
17488;SDS011;8861;52.644;4.734;2022-10-23T08:50:28;8.80;;;6.67;;
17488;SDS011;8861;52.644;4.734;2022-10-23T08:53:02;8.03;;;6.50;;
17488;SDS011;8861;52.644;4.734;2022-10-23T08:55:39;9.23;;;6.87;;
17488;SDS011;8861;52.644;4.734;2022-10-23T08:58:10;7.57;;;5.80;;
17488;SDS011;8861;52.644;4.734;2022-10-23T09:00:40;10.00;;;7.07;;
17488;SDS011;8861;52.644;4.734;2022-10-23T09:03:08;7.97;;;6.03;;
17488;SDS011;8861;52.644;4.734;2022-10-23T09:05:38;7.17;;;5.73;;
17488;SDS011;8861;52.644;4.734;2022-10-23T09:08:22;7.53;;;5.90;;
17488;SDS011;8861;52.644;4.734;2022-10-23T09:11:01;7.23;;;6.17;;
17488;SDS011;8861;52.644;4.734;2022-10-23T09:13:47;7.00;;;6.17;;
17488;SDS011;8861;52.644;4.734;2022-10-23T09:16:38;8.97;;;6.63;;
17488;SDS011;8861;52.644;4.734;2022-10-23T09:19:15;8.43;;;6.50;;
17488;SDS011;8861;52.644;4.734;2022-10-23T09:21:43;9.13;;;6.27;;
17488;SDS011;8861;52.644;4.734;2022-10-23T09:24:12;7.27;;;5.97;;
17488;SDS011;8861;52.644;4.734;2022-10-23T09:26:43;8.40;;;5.87;;
17488;SDS011;8861;52.644;4.734;2022-10-23T09:29:16;10.27;;;6.90;;
17488;SDS011;8861;52.644;4.734;2022-10-23T09:31:48;8.67;;;6.70;;
17488;SDS011;8861;52.644;4.734;2022-10-23T09:34:17;7.87;;;6.30;;
17488;SDS011;8861;52.644;4.734;2022-10-23T09:36:49;9.27;;;6.47;;
17488;SDS011;8861;52.644;4.734;2022-10-23T09:39:23;9.47;;;6.00;;
17488;SDS011;8861;52.644;4.734;2022-10-23T09:41:53;7.23;;;5.77;;
17488;SDS011;8861;52.644;4.734;2022-10-23T09:44:21;6.37;;;5.43;;
17488;SDS011;8861;52.644;4.734;2022-10-23T09:46:49;9.43;;;6.00;;
17488;SDS011;8861;52.644;4.734;2022-10-23T09:49:19;7.00;;;5.80;;
17488;SDS011;8861;52.644;4.734;2022-10-23T09:51:52;7.73;;;5.73;;
17488;SDS011;8861;52.644;4.734;2022-10-23T09:54:24;9.53;;;6.33;;
17488;SDS011;8861;52.644;4.734;2022-10-23T09:56:53;9.63;;;6.20;;
17488;SDS011;8861;52.644;4.734;2022-10-23T09:59:24;6.70;;;6.00;;
17488;SDS011;8861;52.644;4.734;2022-10-23T10:01:54;8.40;;;6.30;;
17488;SDS011;8861;52.644;4.734;2022-10-23T10:04:34;7.70;;;5.40;;
17488;SDS011;8861;52.644;4.734;2022-10-23T10:07:03;8.83;;;6.00;;
17488;SDS011;8861;52.644;4.734;2022-10-23T10:09:39;11.77;;;6.33;;
17488;SDS011;8861;52.644;4.734;2022-10-23T10:12:12;7.83;;;5.77;;
17488;SDS011;8861;52.644;4.734;2022-10-23T10:14:50;7.23;;;5.50;;
17488;SDS011;8861;52.644;4.734;2022-10-23T10:17:28;7.43;;;5.87;;
17488;SDS011;8861;52.644;4.734;2022-10-23T10:20:12;8.30;;;5.77;;
17488;SDS011;8861;52.644;4.734;2022-10-23T10:22:49;7.27;;;5.07;;
17488;SDS011;8861;52.644;4.734;2022-10-23T10:25:20;6.83;;;5.50;;
17488;SDS011;8861;52.644;4.734;2022-10-23T10:27:58;7.40;;;4.87;;
17488;SDS011;8861;52.644;4.734;2022-10-23T10:30:36;6.43;;;5.33;;
17488;SDS011;8861;52.644;4.734;2022-10-23T10:33:15;5.87;;;5.00;;
17488;SDS011;8861;52.644;4.734;2022-10-23T10:35:47;6.97;;;4.83;;
17488;SDS011;8861;52.644;4.734;2022-10-23T10:38:28;6.57;;;4.97;;
17488;SDS011;8861;52.644;4.734;2022-10-23T10:41:19;7.77;;;5.43;;
17488;SDS011;8861;52.644;4.734;2022-10-23T10:43:59;7.17;;;4.57;;
17488;SDS011;8861;52.644;4.734;2022-10-23T10:46:38;6.57;;;4.90;;
17488;SDS011;8861;52.644;4.734;2022-10-23T10:49:10;7.27;;;5.30;;
17488;SDS011;8861;52.644;4.734;2022-10-23T10:51:43;7.00;;;4.70;;
17488;SDS011;8861;52.644;4.734;2022-10-23T10:54:25;6.07;;;5.10;;
17488;SDS011;8861;52.644;4.734;2022-10-23T10:57:03;7.17;;;4.77;;
17488;SDS011;8861;52.644;4.734;2022-10-23T10:59:40;9.17;;;5.20;;
17488;SDS011;8861;52.644;4.734;2022-10-23T11:02:17;7.47;;;4.73;;
17488;SDS011;8861;52.644;4.734;2022-10-23T11:04:51;6.40;;;4.77;;
17488;SDS011;8861;52.644;4.734;2022-10-23T11:07:22;7.23;;;5.00;;
17488;SDS011;8861;52.644;4.734;2022-10-23T11:09:54;6.00;;;4.80;;
17488;SDS011;8861;52.644;4.734;2022-10-23T11:12:29;8.27;;;5.00;;
17488;SDS011;8861;52.644;4.734;2022-10-23T11:15:00;6.17;;;5.07;;
17488;SDS011;8861;52.644;4.734;2022-10-23T11:17:29;7.53;;;5.27;;
17488;SDS011;8861;52.644;4.734;2022-10-23T11:20:03;6.33;;;4.90;;
17488;SDS011;8861;52.644;4.734;2022-10-23T11:22:35;7.67;;;5.07;;
17488;SDS011;8861;52.644;4.734;2022-10-23T11:25:19;7.50;;;5.37;;
17488;SDS011;8861;52.644;4.734;2022-10-23T11:28:18;10.27;;;5.57;;
17488;SDS011;8861;52.644;4.734;2022-10-23T11:30:58;6.57;;;5.03;;
17488;SDS011;8861;52.644;4.734;2022-10-23T11:33:39;9.20;;;5.60;;
17488;SDS011;8861;52.644;4.734;2022-10-23T11:36:31;5.77;;;4.93;;
17488;SDS011;8861;52.644;4.734;2022-10-23T11:39:13;9.93;;;5.80;;
17488;SDS011;8861;52.644;4.734;2022-10-23T11:41:50;7.30;;;4.87;;
17488;SDS011;8861;52.644;4.734;2022-10-23T11:44:26;7.60;;;5.00;;
17488;SDS011;8861;52.644;4.734;2022-10-23T11:52:57;6.27;;;4.97;;
17488;SDS011;8861;52.644;4.734;2022-10-23T11:55:29;10.03;;;5.20;;
17488;SDS011;8861;52.644;4.734;2022-10-23T12:01:00;6.47;;;5.10;;
17488;SDS011;8861;52.644;4.734;2022-10-23T12:03:48;6.83;;;5.33;;
17488;SDS011;8861;52.644;4.734;2022-10-23T12:06:19;8.07;;;5.33;;
17488;SDS011;8861;52.644;4.734;2022-10-23T12:08:50;8.03;;;5.40;;
17488;SDS011;8861;52.644;4.734;2022-10-23T12:11:27;10.67;;;5.87;;
17488;SDS011;8861;52.644;4.734;2022-10-23T12:14:11;8.43;;;5.60;;
17488;SDS011;8861;52.644;4.734;2022-10-23T12:16:51;9.77;;;5.63;;
17488;SDS011;8861;52.644;4.734;2022-10-23T12:19:21;9.40;;;6.00;;
17488;SDS011;8861;52.644;4.734;2022-10-23T12:21:52;9.53;;;5.90;;
17488;SDS011;8861;52.644;4.734;2022-10-23T12:24:32;8.87;;;5.63;;
17488;SDS011;8861;52.644;4.734;2022-10-23T12:27:32;8.73;;;5.80;;
17488;SDS011;8861;52.644;4.734;2022-10-23T12:30:13;9.53;;;5.00;;
17488;SDS011;8861;52.644;4.734;2022-10-23T12:32:50;6.27;;;4.70;;
17488;SDS011;8861;52.644;4.734;2022-10-23T12:35:36;7.43;;;5.30;;
17488;SDS011;8861;52.644;4.734;2022-10-23T12:38:23;6.40;;;4.77;;
17488;SDS011;8861;52.644;4.734;2022-10-23T12:40:52;9.50;;;5.17;;
17488;SDS011;8861;52.644;4.734;2022-10-23T12:43:23;8.03;;;5.07;;
17488;SDS011;8861;52.644;4.734;2022-10-23T12:45:53;6.60;;;4.77;;
17488;SDS011;8861;52.644;4.734;2022-10-23T12:48:22;8.80;;;5.00;;
17488;SDS011;8861;52.644;4.734;2022-10-23T12:50:52;10.67;;;5.80;;
17488;SDS011;8861;52.644;4.734;2022-10-23T12:53:20;8.40;;;5.07;;
17488;SDS011;8861;52.644;4.734;2022-10-23T12:55:50;8.17;;;5.40;;
17488;SDS011;8861;52.644;4.734;2022-10-23T12:58:21;10.47;;;5.33;;
17488;SDS011;8861;52.644;4.734;2022-10-23T13:00:50;8.30;;;4.90;;
17488;SDS011;8861;52.644;4.734;2022-10-23T13:03:19;7.37;;;5.57;;
17488;SDS011;8861;52.644;4.734;2022-10-23T13:05:48;7.13;;;5.00;;
17488;SDS011;8861;52.644;4.734;2022-10-23T13:08:18;7.43;;;5.00;;
17488;SDS011;8861;52.644;4.734;2022-10-23T13:10:46;7.47;;;4.63;;
17488;SDS011;8861;52.644;4.734;2022-10-23T13:13:16;7.37;;;4.87;;
17488;SDS011;8861;52.644;4.734;2022-10-23T13:15:48;5.50;;;4.17;;
17488;SDS011;8861;52.644;4.734;2022-10-23T13:18:16;6.70;;;4.90;;
17488;SDS011;8861;52.644;4.734;2022-10-23T13:20:55;8.90;;;4.70;;
17488;SDS011;8861;52.644;4.734;2022-10-23T13:23:25;8.07;;;4.60;;
17488;SDS011;8861;52.644;4.734;2022-10-23T13:25:57;6.00;;;4.57;;
17488;SDS011;8861;52.644;4.734;2022-10-23T13:28:25;7.40;;;4.70;;
17488;SDS011;8861;52.644;4.734;2022-10-23T13:34:04;7.57;;;4.83;;
17488;SDS011;8861;52.644;4.734;2022-10-23T13:36:47;8.93;;;5.20;;
17488;SDS011;8861;52.644;4.734;2022-10-23T13:39:28;10.10;;;5.47;;
17488;SDS011;8861;52.644;4.734;2022-10-23T13:41:58;6.57;;;5.07;;
17488;SDS011;8861;52.644;4.734;2022-10-23T13:44:31;6.57;;;4.67;;
17488;SDS011;8861;52.644;4.734;2022-10-23T13:46:58;6.30;;;4.40;;
17488;SDS011;8861;52.644;4.734;2022-10-23T13:49:24;7.73;;;4.70;;
17488;SDS011;8861;52.644;4.734;2022-10-23T13:51:52;8.33;;;5.13;;
17488;SDS011;8861;52.644;4.734;2022-10-23T13:54:20;7.70;;;4.53;;
17488;SDS011;8861;52.644;4.734;2022-10-23T13:56:50;8.70;;;4.40;;
17488;SDS011;8861;52.644;4.734;2022-10-23T13:59:18;7.67;;;4.30;;
17488;SDS011;8861;52.644;4.734;2022-10-23T14:01:45;6.97;;;5.00;;
17488;SDS011;8861;52.644;4.734;2022-10-23T14:04:14;7.20;;;4.63;;
17488;SDS011;8861;52.644;4.734;2022-10-23T14:06:42;7.77;;;4.53;;
17488;SDS011;8861;52.644;4.734;2022-10-23T14:09:11;7.80;;;4.70;;
17488;SDS011;8861;52.644;4.734;2022-10-23T14:11:40;7.97;;;4.80;;
17488;SDS011;8861;52.644;4.734;2022-10-23T14:14:09;9.03;;;5.07;;
17488;SDS011;8861;52.644;4.734;2022-10-23T14:16:36;6.57;;;4.47;;
17488;SDS011;8861;52.644;4.734;2022-10-23T14:19:02;6.73;;;4.20;;
17488;SDS011;8861;52.644;4.734;2022-10-23T14:21:29;6.87;;;4.27;;
17488;SDS011;8861;52.644;4.734;2022-10-23T14:23:57;9.73;;;4.40;;
17488;SDS011;8861;52.644;4.734;2022-10-23T14:26:24;5.97;;;4.27;;
17488;SDS011;8861;52.644;4.734;2022-10-23T14:28:54;8.17;;;4.10;;
17488;SDS011;8861;52.644;4.734;2022-10-23T14:31:24;6.47;;;4.40;;
17488;SDS011;8861;52.644;4.734;2022-10-23T14:33:54;7.07;;;4.60;;
17488;SDS011;8861;52.644;4.734;2022-10-23T14:36:23;9.10;;;4.60;;
17488;SDS011;8861;52.644;4.734;2022-10-23T14:38:55;9.50;;;5.00;;
17488;SDS011;8861;52.644;4.734;2022-10-23T14:41:22;8.10;;;4.80;;
17488;SDS011;8861;52.644;4.734;2022-10-23T14:43:51;6.17;;;4.20;;
17488;SDS011;8861;52.644;4.734;2022-10-23T14:46:20;5.43;;;4.30;;
17488;SDS011;8861;52.644;4.734;2022-10-23T14:48:50;7.23;;;4.83;;
17488;SDS011;8861;52.644;4.734;2022-10-23T14:51:18;5.53;;;4.37;;
17488;SDS011;8861;52.644;4.734;2022-10-23T14:53:47;11.00;;;5.23;;
17488;SDS011;8861;52.644;4.734;2022-10-23T14:56:14;9.90;;;5.23;;
17488;SDS011;8861;52.644;4.734;2022-10-23T14:58:41;7.37;;;4.57;;
17488;SDS011;8861;52.644;4.734;2022-10-23T15:01:08;11.37;;;5.17;;
17488;SDS011;8861;52.644;4.734;2022-10-23T15:03:35;7.80;;;5.17;;
17488;SDS011;8861;52.644;4.734;2022-10-23T15:06:04;8.97;;;4.90;;
17488;SDS011;8861;52.644;4.734;2022-10-23T15:08:32;9.17;;;4.90;;
17488;SDS011;8861;52.644;4.734;2022-10-23T15:11:00;10.63;;;5.33;;
17488;SDS011;8861;52.644;4.734;2022-10-23T15:13:27;7.80;;;4.77;;
17488;SDS011;8861;52.644;4.734;2022-10-23T15:16:01;7.90;;;4.83;;
17488;SDS011;8861;52.644;4.734;2022-10-23T15:18:29;6.93;;;4.90;;
17488;SDS011;8861;52.644;4.734;2022-10-23T15:20:56;6.70;;;4.40;;
17488;SDS011;8861;52.644;4.734;2022-10-23T15:23:24;6.67;;;4.83;;
17488;SDS011;8861;52.644;4.734;2022-10-23T15:25:54;5.27;;;4.20;;
17488;SDS011;8861;52.644;4.734;2022-10-23T15:28:22;5.80;;;4.30;;
17488;SDS011;8861;52.644;4.734;2022-10-23T15:30:50;5.83;;;4.50;;
17488;SDS011;8861;52.644;4.734;2022-10-23T15:33:16;5.47;;;4.20;;
17488;SDS011;8861;52.644;4.734;2022-10-23T15:35:43;6.00;;;4.73;;
17488;SDS011;8861;52.644;4.734;2022-10-23T15:38:10;5.10;;;4.10;;
17488;SDS011;8861;52.644;4.734;2022-10-23T15:40:39;5.83;;;4.20;;
17488;SDS011;8861;52.644;4.734;2022-10-23T15:43:06;5.40;;;4.30;;
17488;SDS011;8861;52.644;4.734;2022-10-23T15:45:34;5.77;;;4.33;;
17488;SDS011;8861;52.644;4.734;2022-10-23T15:48:01;5.70;;;4.33;;
17488;SDS011;8861;52.644;4.734;2022-10-23T15:50:28;6.43;;;4.10;;
17488;SDS011;8861;52.644;4.734;2022-10-23T15:52:55;6.67;;;4.57;;
17488;SDS011;8861;52.644;4.734;2022-10-23T15:55:22;6.30;;;4.23;;
17488;SDS011;8861;52.644;4.734;2022-10-23T15:57:50;6.03;;;4.73;;
17488;SDS011;8861;52.644;4.734;2022-10-23T16:00:17;4.80;;;3.90;;